createdAt,value
2018-09-01T00:01:11.036Z,15.80
2018-09-01T00:03:39.069Z,15.80
2018-09-01T00:06:07.100Z,15.80
2018-09-01T00:08:35.144Z,15.80
2018-09-01T00:11:03.203Z,15.70
2018-09-01T00:13:31.227Z,15.70
2018-09-01T00:15:59.259Z,15.70
2018-09-01T00:18:27.332Z,15.70
2018-09-01T00:20:55.392Z,15.60
2018-09-01T00:23:23.486Z,15.50
2018-09-01T00:25:51.511Z,15.50
2018-09-01T00:28:19.588Z,15.50
2018-09-01T00:30:47.733Z,15.50
2018-09-01T00:33:15.688Z,15.40
2018-09-01T00:35:43.723Z,15.40
2018-09-01T00:38:17.356Z,15.30
2018-09-01T00:40:45.381Z,15.30
2018-09-01T00:43:13.428Z,15.20
2018-09-01T00:45:41.486Z,15.20
2018-09-01T00:48:09.510Z,15.10
2018-09-01T00:50:37.544Z,15.00
2018-09-01T00:53:05.753Z,15.00
2018-09-01T00:55:34.093Z,15.00
2018-09-01T00:58:02.671Z,15.00
2018-09-01T01:00:30.728Z,14.90
2018-09-01T01:02:58.740Z,14.90
2018-09-01T01:05:26.788Z,14.90
2018-09-01T01:07:54.833Z,14.80
2018-09-01T01:10:22.880Z,14.80
2018-09-01T01:12:50.899Z,14.70
2018-09-01T01:15:19.400Z,14.60
2018-09-01T01:17:47.432Z,14.60
2018-09-01T01:20:15.448Z,14.50
2018-09-01T01:22:43.508Z,14.50
2018-09-01T01:25:11.555Z,14.50
2018-09-01T01:27:39.584Z,14.40
2018-09-01T01:30:07.634Z,14.40
2018-09-01T01:32:35.833Z,14.30
2018-09-01T01:35:04.378Z,14.30
2018-09-01T01:37:33.984Z,14.30
2018-09-01T01:40:02.913Z,14.20
2018-09-01T01:42:30.944Z,14.30
2018-09-01T01:44:59.139Z,14.30
2018-09-01T01:47:27.164Z,14.30
2018-09-01T01:49:55.335Z,14.30
2018-09-01T01:52:23.396Z,14.30
2018-09-01T01:54:51.410Z,14.20
2018-09-01T01:57:19.452Z,14.20
2018-09-01T01:59:47.509Z,14.20
2018-09-01T02:02:22.211Z,14.20
2018-09-01T02:04:50.272Z,14.20
2018-09-01T02:07:18.309Z,14.20
2018-09-01T02:09:46.372Z,14.20
2018-09-01T02:12:14.461Z,14.10
2018-09-01T02:14:42.488Z,14.10
2018-09-01T02:17:10.604Z,14.00
2018-09-01T02:19:38.664Z,14.00
2018-09-01T02:22:06.704Z,13.90
2018-09-01T02:24:34.758Z,13.80
2018-09-01T02:27:02.805Z,13.70
2018-09-01T02:29:30.832Z,13.70
2018-09-01T02:31:58.894Z,13.70
2018-09-01T02:34:26.925Z,13.70
2018-09-01T02:36:54.953Z,13.70
2018-09-01T02:39:22.987Z,13.60
2018-09-01T02:41:51.042Z,13.60
2018-09-01T02:44:19.066Z,13.60
2018-09-01T02:46:47.096Z,13.50
2018-09-01T02:49:15.135Z,13.50
2018-09-01T02:51:43.157Z,13.30
2018-09-01T02:54:11.167Z,13.30
2018-09-01T02:56:39.244Z,13.20
2018-09-01T02:59:07.284Z,13.30
2018-09-01T03:01:35.324Z,13.20
2018-09-01T03:04:03.549Z,13.10
2018-09-01T03:06:46.900Z,13.10
2018-09-01T03:09:15.279Z,13.00
2018-09-01T03:11:43.295Z,13.00
2018-09-01T03:14:11.364Z,13.00
2018-09-01T03:16:39.397Z,13.00
2018-09-01T03:19:07.953Z,12.90
2018-09-01T03:21:36.091Z,12.90
2018-09-01T03:24:04.201Z,12.90
2018-09-01T03:26:32.309Z,12.80
2018-09-01T03:29:00.340Z,12.70
2018-09-01T03:31:28.392Z,12.70
2018-09-01T03:33:56.422Z,12.70
2018-09-01T03:36:24.464Z,12.60
2018-09-01T03:38:52.500Z,12.60
2018-09-01T03:41:20.557Z,12.50
2018-09-01T03:43:48.994Z,12.50
2018-09-01T03:46:17.116Z,12.40
2018-09-01T03:48:45.170Z,12.40
2018-09-01T03:51:13.198Z,12.40
2018-09-01T03:53:41.257Z,12.40
2018-09-01T03:56:09.285Z,12.40
2018-09-01T03:58:37.311Z,12.40
2018-09-01T04:01:05.356Z,12.40
2018-09-01T04:03:33.423Z,12.40
2018-09-01T04:06:01.472Z,12.40
2018-09-01T04:08:29.533Z,12.50
2018-09-01T04:10:57.692Z,12.40
2018-09-01T04:13:25.733Z,12.30
2018-09-01T04:15:53.785Z,12.20
2018-09-01T04:18:21.844Z,12.30
2018-09-01T04:20:49.914Z,12.30
2018-09-01T04:23:17.972Z,12.40
2018-09-01T04:25:46.010Z,12.30
2018-09-01T04:28:14.049Z,12.30
2018-09-01T04:30:42.080Z,12.30
2018-09-01T04:33:10.128Z,12.30
2018-09-01T04:35:38.163Z,12.30
2018-09-01T04:38:06.211Z,12.30
2018-09-01T04:40:34.249Z,12.30
2018-09-01T04:43:02.288Z,12.30
2018-09-01T04:45:30.312Z,12.20
2018-09-01T04:47:58.344Z,12.20
2018-09-01T04:50:26.379Z,12.20
2018-09-01T04:52:54.428Z,12.20
2018-09-01T04:55:22.481Z,12.20
2018-09-01T04:57:50.520Z,12.20
2018-09-01T05:00:20.429Z,12.20
2018-09-01T05:02:48.733Z,12.20
2018-09-01T05:05:17.004Z,12.20
2018-09-01T05:07:45.292Z,12.20
2018-09-01T05:10:13.328Z,12.20
2018-09-01T05:12:41.361Z,12.40
2018-09-01T05:15:09.396Z,12.40
2018-09-01T05:17:37.443Z,12.50
2018-09-01T05:20:05.592Z,12.50
2018-09-01T05:22:35.273Z,12.50
2018-09-01T05:25:03.305Z,12.70
2018-09-01T05:27:31.904Z,12.80
2018-09-01T05:29:59.936Z,12.90
2018-09-01T05:32:27.950Z,13.10
2018-09-01T05:34:56.004Z,13.20
2018-09-01T05:37:24.044Z,13.30
2018-09-01T05:39:52.070Z,13.40
2018-09-01T05:42:20.115Z,13.40
2018-09-01T05:44:48.151Z,13.40
2018-09-01T05:47:16.188Z,13.50
2018-09-01T05:49:44.239Z,13.60
2018-09-01T05:52:12.277Z,13.60
2018-09-01T05:54:40.296Z,13.60
2018-09-01T05:57:08.336Z,13.70
2018-09-01T05:59:36.393Z,13.70
2018-09-01T06:02:04.442Z,13.70
2018-09-01T06:04:32.465Z,13.80
2018-09-01T06:07:00.510Z,13.90
2018-09-01T06:09:28.612Z,14.00
2018-09-01T06:11:56.655Z,14.10
2018-09-01T06:14:24.696Z,14.10
2018-09-01T06:16:52.761Z,14.10
2018-09-01T06:19:20.963Z,14.10
2018-09-01T06:21:48.910Z,14.20
2018-09-01T06:24:17.049Z,14.30
2018-09-01T06:26:45.094Z,14.30
2018-09-01T06:29:14.837Z,14.40
2018-09-01T06:31:47.295Z,14.50
2018-09-01T06:34:15.391Z,14.60
2018-09-01T06:36:43.401Z,14.70
2018-09-01T06:39:11.487Z,14.70
2018-09-01T06:41:39.538Z,14.70
2018-09-01T06:44:07.776Z,14.70
2018-09-01T06:46:35.820Z,14.70
2018-09-01T06:49:03.835Z,14.60
2018-09-01T06:51:31.952Z,14.50
2018-09-01T06:53:59.941Z,14.50
2018-09-01T06:56:27.991Z,14.60
2018-09-01T06:58:56.011Z,14.80
2018-09-01T07:01:24.097Z,14.90
2018-09-01T07:03:52.132Z,15.10
2018-09-01T07:06:20.216Z,15.20
2018-09-01T07:11:22.630Z,15.50
2018-09-01T07:13:50.703Z,15.60
2018-09-01T07:16:18.753Z,15.60
2018-09-01T07:18:46.816Z,15.70
2018-09-01T07:21:14.891Z,15.80
2018-09-01T07:23:42.960Z,15.90
2018-09-01T07:26:11.044Z,15.90
2018-09-01T07:28:39.071Z,15.90
2018-09-01T07:31:07.573Z,15.90
2018-09-01T07:33:35.181Z,15.90
2018-09-01T07:36:03.223Z,15.90
2018-09-01T07:38:31.252Z,16.00
2018-09-01T07:40:59.307Z,16.20
2018-09-01T07:43:27.360Z,16.20
2018-09-01T07:45:55.718Z,16.30
2018-09-01T07:48:23.756Z,16.20
2018-09-01T07:50:51.791Z,16.20
2018-09-01T07:53:19.843Z,16.20
2018-09-01T07:55:47.896Z,16.20
2018-09-01T07:58:15.956Z,16.20
2018-09-01T08:00:43.997Z,16.20
2018-09-01T08:03:12.058Z,16.20
2018-09-01T08:05:40.096Z,16.20
2018-09-01T08:08:08.153Z,16.30
2018-09-01T08:10:36.192Z,16.30
2018-09-01T08:13:04.271Z,16.30
2018-09-01T08:15:32.333Z,16.40
2018-09-01T08:18:00.409Z,16.40
2018-09-01T08:20:28.500Z,16.40
2018-09-01T08:22:56.557Z,16.50
2018-09-01T08:25:24.584Z,16.50
2018-09-01T08:27:52.728Z,16.60
2018-09-01T08:30:20.767Z,16.70
2018-09-01T08:32:48.811Z,16.70
2018-09-01T08:35:16.857Z,16.70
2018-09-01T08:37:44.897Z,16.80
2018-09-01T08:40:13.004Z,16.80
2018-09-01T08:42:41.054Z,16.80
2018-09-01T08:45:09.110Z,16.70
2018-09-01T08:47:37.235Z,16.70
2018-09-01T08:50:05.633Z,16.60
2018-09-01T08:52:33.674Z,16.60
2018-09-01T08:55:01.698Z,16.60
2018-09-01T08:57:29.744Z,16.60
2018-09-01T08:59:57.776Z,16.60
2018-09-01T09:02:25.816Z,16.60
2018-09-01T09:04:53.861Z,16.60
2018-09-01T09:07:21.912Z,16.70
2018-09-01T09:09:50.003Z,16.70
2018-09-01T09:12:18.002Z,16.80
2018-09-01T09:14:46.048Z,16.80
2018-09-01T09:17:14.096Z,16.90
2018-09-01T09:19:42.271Z,16.90
2018-09-01T09:22:10.327Z,16.90
2018-09-01T09:24:38.350Z,16.90
2018-09-01T09:27:06.557Z,16.90
2018-09-01T09:29:35.167Z,17.00
2018-09-01T09:32:03.345Z,17.00
2018-09-01T09:34:31.413Z,17.00
2018-09-01T09:36:59.480Z,17.10
2018-09-01T09:39:27.533Z,17.10
2018-09-01T09:41:55.675Z,17.10
2018-09-01T09:44:23.693Z,17.10
2018-09-01T09:46:51.872Z,17.20
2018-09-01T09:49:19.920Z,17.20
2018-09-01T09:51:48.025Z,17.30
2018-09-01T09:54:16.293Z,17.40
2018-09-01T09:56:44.325Z,17.50
2018-09-01T09:59:12.381Z,17.60
2018-09-01T10:01:41.527Z,17.80
2018-09-01T10:04:10.301Z,17.80
2018-09-01T10:06:39.538Z,18.00
2018-09-01T10:09:11.751Z,18.10
2018-09-01T10:11:40.564Z,18.10
2018-09-01T10:14:08.602Z,18.20
2018-09-01T10:16:36.653Z,18.30
2018-09-01T10:19:04.686Z,18.30
2018-09-01T10:21:32.834Z,18.40
2018-09-01T10:24:00.856Z,18.40
2018-09-01T10:26:28.930Z,18.50
2018-09-01T10:28:56.967Z,18.60
2018-09-01T10:31:25.085Z,18.70
2018-09-01T10:33:53.125Z,18.80
2018-09-01T10:36:21.207Z,18.90
2018-09-01T10:38:49.588Z,18.90
2018-09-01T10:41:17.794Z,18.90
2018-09-01T10:43:45.840Z,19.00
2018-09-01T10:46:13.948Z,19.00
2018-09-01T10:48:42.511Z,19.00
2018-09-01T10:51:10.561Z,19.10
2018-09-01T10:53:38.608Z,19.20
2018-09-01T10:56:06.789Z,19.30
2018-09-01T10:58:34.878Z,19.30
2018-09-01T11:01:03.052Z,19.30
2018-09-01T11:03:31.228Z,19.40
2018-09-01T11:05:59.401Z,19.30
2018-09-01T11:08:27.428Z,19.30
2018-09-01T11:10:55.458Z,19.30
2018-09-01T11:13:23.492Z,19.40
2018-09-01T11:15:51.655Z,19.30
2018-09-01T11:18:19.660Z,19.20
2018-09-01T11:20:47.729Z,19.20
2018-09-01T11:23:15.731Z,19.30
2018-09-01T11:25:43.759Z,19.30
2018-09-01T11:28:12.007Z,19.30
2018-09-01T11:30:39.980Z,19.40
2018-09-01T11:33:08.118Z,19.40
2018-09-01T11:35:36.100Z,19.40
2018-09-01T11:38:04.131Z,19.50
2018-09-01T11:40:32.208Z,19.50
2018-09-01T11:43:00.466Z,19.50
2018-09-01T11:45:28.364Z,19.50
2018-09-01T11:47:56.423Z,19.50
2018-09-01T11:50:24.464Z,19.60
2018-09-01T11:52:52.492Z,19.60
2018-09-01T11:55:21.217Z,19.70
2018-09-01T11:57:49.242Z,19.70
2018-09-01T12:00:17.299Z,19.70
2018-09-01T12:02:45.361Z,19.70
2018-09-01T12:05:13.393Z,19.90
2018-09-01T12:07:41.451Z,19.90
2018-09-01T12:10:09.760Z,19.90
2018-09-01T12:12:38.224Z,19.90
2018-09-01T12:15:06.272Z,19.90
2018-09-01T12:17:34.313Z,20.00
2018-09-01T12:20:02.362Z,19.90
2018-09-01T12:22:30.409Z,20.00
2018-09-01T12:24:58.501Z,20.00
2018-09-01T12:27:26.571Z,19.90
2018-09-01T12:29:54.621Z,19.90
2018-09-01T12:32:22.680Z,19.80
2018-09-01T12:34:50.691Z,19.80
2018-09-01T12:37:18.713Z,19.80
2018-09-01T12:39:46.763Z,19.80
2018-09-01T12:42:15.171Z,19.70
2018-09-01T12:44:43.198Z,19.70
2018-09-01T12:47:11.232Z,19.70
2018-09-01T12:49:39.257Z,19.70
2018-09-01T12:52:07.336Z,19.70
2018-09-01T12:54:35.374Z,19.60
2018-09-01T12:57:03.395Z,19.50
2018-09-01T12:59:31.443Z,19.40
2018-09-01T13:01:59.784Z,19.40
2018-09-01T13:04:27.812Z,19.30
2018-09-01T13:06:55.837Z,19.20
2018-09-01T13:09:23.905Z,19.10
2018-09-01T13:11:51.945Z,19.10
2018-09-01T13:14:19.953Z,19.10
2018-09-01T13:16:47.999Z,19.10
2018-09-01T13:19:16.016Z,19.10
2018-09-01T13:21:44.049Z,19.00
2018-09-01T13:24:12.119Z,19.00
2018-09-01T13:26:40.136Z,19.10
2018-09-01T13:29:08.160Z,19.10
2018-09-01T13:31:36.193Z,19.10
2018-09-01T13:34:04.216Z,19.10
2018-09-01T13:36:32.242Z,19.10
2018-09-01T13:39:00.418Z,19.10
2018-09-01T13:41:28.316Z,19.00
2018-09-01T13:43:56.353Z,19.00
2018-09-01T13:46:24.884Z,19.00
2018-09-01T13:48:54.044Z,19.00
2018-09-01T13:51:22.355Z,18.90
2018-09-01T13:53:51.741Z,18.90
2018-09-01T13:56:21.885Z,19.00
2018-09-01T13:58:51.017Z,18.90
2018-09-01T14:01:20.002Z,18.90
2018-09-01T14:03:48.430Z,18.90
2018-09-01T14:06:16.493Z,18.90
2018-09-01T14:08:44.512Z,18.90
2018-09-01T14:11:12.555Z,19.00
2018-09-01T14:13:40.584Z,18.90
2018-09-01T14:16:08.721Z,18.80
2018-09-01T14:18:36.763Z,18.80
2018-09-01T14:21:04.822Z,18.80
2018-09-01T14:23:32.880Z,18.80
2018-09-01T14:26:00.934Z,18.80
2018-09-01T14:28:29.077Z,18.90
2018-09-01T14:30:57.144Z,18.80
2018-09-01T14:33:25.236Z,18.90
2018-09-01T14:35:53.280Z,18.90
2018-09-01T14:38:21.318Z,18.90
2018-09-01T14:40:49.376Z,18.90
2018-09-01T14:43:17.394Z,18.80
2018-09-01T14:45:45.507Z,18.90
2018-09-01T14:48:13.661Z,18.90
2018-09-01T14:50:41.712Z,18.90
2018-09-01T14:53:09.799Z,18.80
2018-09-01T14:55:37.877Z,18.80
2018-09-01T14:58:05.970Z,18.70
2018-09-01T15:00:34.054Z,18.70
2018-09-01T15:03:02.099Z,18.70
2018-09-01T15:05:30.168Z,18.70
2018-09-01T15:07:58.212Z,18.60
2018-09-01T15:10:26.312Z,18.70
2018-09-01T15:12:54.336Z,18.70
2018-09-01T15:15:22.365Z,18.70
2018-09-01T15:17:50.405Z,18.60
2018-09-01T15:20:18.467Z,18.60
2018-09-01T15:22:46.580Z,18.60
2018-09-01T15:25:14.657Z,18.50
2018-09-01T15:27:42.695Z,18.50
2018-09-01T15:30:10.748Z,18.50
2018-09-01T15:32:38.829Z,18.30
2018-09-01T15:35:07.042Z,18.30
2018-09-01T15:37:35.096Z,18.30
2018-09-01T15:40:03.154Z,18.30
2018-09-01T15:42:31.233Z,18.20
2018-09-01T15:44:59.264Z,18.20
2018-09-01T15:47:27.336Z,18.10
2018-09-01T15:49:55.352Z,18.10
2018-09-01T15:52:23.376Z,18.10
2018-09-01T15:54:51.413Z,18.00
2018-09-01T15:57:19.447Z,17.90
2018-09-01T15:59:47.540Z,17.80
2018-09-01T16:02:15.590Z,17.70
2018-09-01T16:04:43.712Z,17.70
2018-09-01T16:07:11.744Z,17.60
2018-09-01T16:09:39.802Z,17.50
2018-09-01T16:12:07.814Z,17.40
2018-09-01T16:14:35.833Z,17.40
2018-09-01T16:17:03.876Z,17.30
2018-09-01T16:19:31.931Z,17.30
2018-09-01T16:21:59.963Z,17.20
2018-09-01T16:24:28.049Z,17.20
2018-09-01T16:26:56.093Z,17.10
2018-09-01T16:29:24.173Z,17.10
2018-09-01T16:31:52.219Z,17.00
2018-09-01T16:34:20.258Z,17.00
2018-09-01T16:36:48.294Z,17.00
2018-09-01T16:39:16.366Z,16.80
2018-09-01T16:41:44.391Z,16.80
2018-09-01T16:44:12.433Z,16.80
2018-09-01T16:46:40.524Z,16.80
2018-09-01T16:49:08.575Z,16.70
2018-09-01T16:51:36.807Z,16.70
2018-09-01T16:54:04.956Z,16.70
2018-09-01T16:56:32.989Z,16.60
2018-09-01T16:59:01.128Z,16.60
2018-09-01T17:01:29.195Z,16.60
2018-09-01T17:03:57.223Z,16.60
2018-09-01T17:06:25.288Z,16.50
2018-09-01T17:08:53.360Z,16.50
2018-09-01T17:11:21.400Z,16.50
2018-09-01T17:13:49.501Z,16.50
2018-09-01T17:16:17.561Z,16.50
2018-09-01T17:18:45.632Z,16.40
2018-09-01T17:21:13.752Z,16.40
2018-09-01T17:23:41.956Z,16.40
2018-09-01T17:26:09.979Z,16.40
2018-09-01T17:28:37.996Z,16.40
2018-09-01T17:31:06.481Z,16.30
2018-09-01T17:33:34.509Z,16.40
2018-09-01T17:36:02.589Z,16.30
2018-09-01T17:38:30.655Z,16.30
2018-09-01T17:40:58.676Z,16.30
2018-09-01T17:43:26.873Z,16.20
2018-09-01T17:45:55.300Z,16.30
2018-09-01T17:48:23.328Z,16.20
2018-09-01T17:50:51.564Z,16.20
2018-09-01T17:53:19.632Z,16.20
2018-09-01T17:55:47.663Z,16.20
2018-09-01T17:58:15.689Z,16.30
2018-09-01T18:00:43.758Z,16.20
2018-09-01T18:03:12.021Z,16.20
2018-09-01T18:05:40.094Z,16.10
2018-09-01T18:08:08.140Z,16.10
2018-09-01T18:10:36.202Z,16.10
2018-09-01T18:13:04.220Z,16.00
2018-09-01T18:15:32.305Z,16.10
2018-09-01T18:18:00.348Z,16.00
2018-09-01T18:20:28.439Z,16.00
2018-09-01T18:22:56.519Z,16.00
2018-09-01T18:25:24.628Z,16.00
2018-09-01T18:27:52.708Z,16.00
2018-09-01T18:30:20.872Z,16.00
2018-09-01T18:32:48.929Z,16.00
2018-09-01T18:35:17.037Z,15.90
2018-09-01T18:37:45.022Z,15.90
2018-09-01T18:40:13.070Z,15.80
2018-09-01T18:42:41.141Z,15.80
2018-09-01T18:45:09.485Z,15.80
2018-09-01T18:47:37.525Z,15.90
2018-09-01T18:50:05.926Z,15.80
2018-09-01T18:52:34.005Z,15.80
2018-09-01T18:55:02.080Z,15.80
2018-09-01T18:57:30.150Z,15.80
2018-09-01T18:59:59.034Z,15.80
2018-09-01T19:02:27.055Z,15.80
2018-09-01T19:04:55.216Z,15.80
2018-09-01T19:07:23.221Z,15.70
2018-09-01T19:09:51.309Z,15.70
2018-09-01T19:12:19.368Z,15.70
2018-09-01T19:14:47.424Z,15.70
2018-09-01T19:17:15.450Z,15.70
2018-09-01T19:19:43.482Z,15.70
2018-09-01T19:22:11.547Z,15.70
2018-09-01T19:24:39.589Z,15.70
2018-09-01T19:27:07.659Z,15.60
2018-09-01T19:29:35.671Z,15.60
2018-09-01T19:32:03.712Z,15.60
2018-09-01T19:34:31.751Z,15.60
2018-09-01T19:36:59.794Z,15.70
2018-09-01T19:39:27.847Z,15.70
2018-09-01T19:41:55.887Z,15.70
2018-09-01T19:44:24.068Z,15.60
2018-09-01T19:46:52.093Z,15.60
2018-09-01T19:49:20.116Z,15.70
2018-09-01T19:51:48.159Z,15.60
2018-09-01T19:54:16.216Z,15.60
2018-09-01T19:56:44.278Z,15.60
2018-09-01T19:59:12.345Z,15.60
2018-09-01T20:01:40.386Z,15.60
2018-09-01T20:04:08.451Z,15.60
2018-09-01T20:06:36.489Z,15.60
2018-09-01T20:09:05.535Z,15.60
2018-09-01T20:11:33.585Z,15.60
2018-09-01T20:14:01.699Z,15.60
2018-09-01T20:16:29.715Z,15.60
2018-09-01T20:18:57.734Z,15.60
2018-09-01T20:21:25.787Z,15.60
2018-09-01T20:23:53.841Z,15.60
2018-09-01T20:26:21.872Z,15.60
2018-09-01T20:28:49.928Z,15.60
2018-09-01T20:31:18.024Z,15.60
2018-09-01T20:33:46.073Z,15.60
2018-09-01T20:36:15.667Z,15.60
2018-09-01T20:38:43.711Z,15.60
2018-09-01T20:41:11.764Z,15.60
2018-09-01T20:43:39.827Z,15.60
2018-09-01T20:46:08.092Z,15.60
2018-09-01T20:48:36.112Z,15.60
2018-09-01T20:51:04.171Z,15.60
2018-09-01T20:53:32.217Z,15.60
2018-09-01T20:56:00.245Z,15.60
2018-09-01T20:58:28.293Z,15.60
2018-09-01T21:00:56.482Z,15.60
2018-09-01T21:03:24.529Z,15.60
2018-09-01T21:05:52.724Z,15.60
2018-09-01T21:08:20.952Z,15.60
2018-09-01T21:10:49.021Z,15.60
2018-09-01T21:13:17.078Z,15.60
2018-09-01T21:15:45.108Z,15.60
2018-09-01T21:18:13.161Z,15.60
2018-09-01T21:20:41.256Z,15.60
2018-09-01T21:23:09.328Z,15.60
2018-09-01T21:25:37.376Z,15.60
2018-09-01T21:28:05.527Z,15.60
2018-09-01T21:30:33.668Z,15.60
2018-09-01T21:33:01.750Z,15.60
2018-09-01T21:35:29.823Z,15.60
2018-09-01T21:37:57.909Z,15.60
2018-09-01T21:40:26.036Z,15.60
2018-09-01T21:42:54.101Z,15.60
2018-09-01T21:45:22.132Z,15.60
2018-09-01T21:47:50.164Z,15.60
2018-09-01T21:50:18.206Z,15.60
2018-09-01T21:52:46.260Z,15.60
2018-09-01T21:55:14.302Z,15.60
2018-09-01T21:57:42.373Z,15.60
2018-09-01T22:00:10.717Z,15.60
2018-09-01T22:02:38.743Z,15.60
2018-09-01T22:05:12.586Z,15.60
2018-09-01T22:07:40.632Z,15.60
2018-09-01T22:10:08.767Z,15.60
2018-09-01T22:12:36.766Z,15.60
2018-09-01T22:15:04.907Z,15.60
2018-09-01T22:17:32.959Z,15.50
2018-09-01T22:20:01.009Z,15.60
2018-09-01T22:22:29.047Z,15.50
2018-09-01T22:24:57.092Z,15.60
2018-09-01T22:27:25.158Z,15.50
2018-09-01T22:29:53.212Z,15.50
2018-09-01T22:32:21.238Z,15.50
2018-09-01T22:34:49.287Z,15.50
2018-09-01T22:37:17.301Z,15.50
2018-09-01T22:39:45.355Z,15.50
2018-09-01T22:42:13.420Z,15.50
2018-09-01T22:44:41.446Z,15.50
2018-09-01T22:47:12.502Z,15.50
2018-09-01T22:49:40.542Z,15.50
2018-09-01T22:52:08.574Z,15.70
2018-09-01T22:54:36.604Z,15.80
2018-09-01T22:57:04.854Z,15.80
2018-09-01T22:59:32.891Z,15.70
2018-09-01T23:02:00.956Z,15.70
2018-09-01T23:04:28.993Z,15.70
2018-09-01T23:06:57.037Z,15.60
2018-09-01T23:09:25.089Z,15.60
2018-09-01T23:11:53.121Z,15.50
2018-09-01T23:14:21.183Z,15.50
2018-09-01T23:16:49.268Z,15.50
2018-09-01T23:19:17.315Z,15.50
2018-09-01T23:21:45.368Z,15.50
2018-09-01T23:24:13.453Z,15.50
2018-09-01T23:26:41.524Z,15.50
2018-09-01T23:29:09.580Z,15.50
2018-09-01T23:31:37.662Z,15.40
2018-09-01T23:34:05.841Z,15.40
2018-09-01T23:36:33.945Z,15.40
2018-09-01T23:39:02.025Z,15.40
2018-09-01T23:41:30.069Z,15.40
2018-09-01T23:43:58.121Z,15.40
2018-09-01T23:46:26.232Z,15.40
2018-09-01T23:48:54.456Z,15.40
2018-09-01T23:51:22.537Z,15.40
2018-09-01T23:53:50.620Z,15.40
2018-09-01T23:56:18.964Z,15.40
2018-09-01T23:58:47.021Z,15.40
